createdAt,value
2022-08-11T00:02:35.116Z,61.35
2022-08-11T00:05:08.652Z,61.53
2022-08-11T00:07:37.445Z,65.21
2022-08-11T00:10:11.345Z,67.10
2022-08-11T00:12:42.333Z,62.49
2022-08-11T00:15:14.081Z,58.91
2022-08-11T00:17:45.243Z,56.83
2022-08-11T00:20:17.390Z,57.88
2022-08-11T00:22:48.770Z,59.80
2022-08-11T00:25:20.668Z,62.10
2022-08-11T00:27:51.009Z,65.39
2022-08-11T00:30:21.719Z,62.69
2022-08-11T00:32:56.697Z,57.81
2022-08-11T00:35:51.210Z,59.38
2022-08-11T00:38:24.590Z,61.29
2022-08-11T00:40:58.759Z,65.53
2022-08-11T00:43:38.091Z,63.75
2022-08-11T00:46:14.247Z,60.27
2022-08-11T00:48:50.623Z,58.38
2022-08-11T00:51:27.334Z,59.59
2022-08-11T00:54:28.063Z,61.63
2022-08-11T00:57:36.182Z,64.46
2022-08-11T01:00:14.902Z,62.00
2022-08-11T01:03:04.539Z,63.48
2022-08-11T01:05:54.547Z,62.08
2022-08-11T01:08:44.603Z,58.90
2022-08-11T01:11:27.317Z,58.63
2022-08-11T01:14:09.009Z,61.24
2022-08-11T01:16:53.690Z,65.15
2022-08-11T01:20:44.995Z,65.00
2022-08-11T01:22:53.401Z,59.82
2022-08-11T01:25:57.531Z,58.85
2022-08-11T01:28:52.517Z,62.66
2022-08-11T01:31:36.597Z,63.28
2022-08-11T01:34:23.041Z,61.16
2022-08-11T01:37:03.778Z,60.18
2022-08-11T01:39:50.587Z,58.45
2022-08-11T01:42:55.007Z,59.36
2022-08-11T01:45:23.995Z,63.85
2022-08-11T01:48:01.131Z,65.85
2022-08-11T01:50:38.751Z,62.89
2022-08-11T01:53:17.454Z,62.09
2022-08-11T01:55:57.452Z,60.68
2022-08-11T01:58:39.541Z,58.33
2022-08-11T02:01:24.375Z,60.65
2022-08-11T02:03:59.138Z,64.54
2022-08-11T02:06:50.606Z,64.38
2022-08-11T02:09:26.159Z,61.70
2022-08-11T02:11:59.652Z,59.90
2022-08-11T02:14:39.030Z,59.24
2022-08-11T02:17:14.167Z,62.99
2022-08-11T02:20:17.930Z,63.68
2022-08-11T02:23:10.194Z,60.51
2022-08-11T02:25:45.084Z,60.18
2022-08-11T02:28:24.238Z,63.86
2022-08-11T02:32:05.103Z,62.85
2022-08-11T02:34:13.013Z,59.81
2022-08-11T02:36:46.200Z,59.90
2022-08-11T02:39:19.636Z,63.95
2022-08-11T02:42:06.602Z,65.12
2022-08-11T02:45:07.144Z,61.82
2022-08-11T02:48:07.875Z,62.00
2022-08-11T02:50:39.333Z,60.77
2022-08-11T02:53:12.864Z,59.59
2022-08-11T02:55:44.422Z,59.41
2022-08-11T02:58:26.886Z,63.50
2022-08-11T03:01:02.299Z,63.74
2022-08-11T03:03:37.872Z,62.20
2022-08-11T03:06:10.727Z,60.17
2022-08-11T03:08:52.760Z,60.49
2022-08-11T03:12:03.013Z,61.04
2022-08-11T03:14:55.555Z,60.56
2022-08-11T03:17:30.016Z,59.84
2022-08-11T03:20:07.414Z,59.02
2022-08-11T03:22:41.888Z,60.65
2022-08-11T03:25:16.726Z,65.44
2022-08-11T03:27:51.453Z,63.82
2022-08-11T03:30:27.133Z,61.66
2022-08-11T03:33:24.043Z,61.29
2022-08-11T03:36:05.791Z,61.27
2022-08-11T03:38:45.126Z,59.50
2022-08-11T03:42:02.304Z,59.83
2022-08-11T03:44:47.365Z,64.82
2022-08-11T03:47:25.522Z,63.61
2022-08-11T03:50:02.033Z,61.23
2022-08-11T03:52:39.783Z,60.52
2022-08-11T03:55:15.334Z,60.38
2022-08-11T03:58:03.928Z,60.02
2022-08-11T04:00:54.324Z,59.22
2022-08-11T04:03:53.661Z,59.89
2022-08-11T04:06:49.852Z,64.96
2022-08-11T04:09:45.005Z,63.38
2022-08-11T04:12:35.809Z,59.96
2022-08-11T04:15:32.714Z,59.37
2022-08-11T04:18:16.509Z,64.31
2022-08-11T04:20:55.231Z,63.17
2022-08-11T04:24:36.213Z,62.06
2022-08-11T04:26:34.491Z,61.26
2022-08-11T04:29:12.423Z,60.27
2022-08-11T04:31:52.127Z,59.32
2022-08-11T04:34:37.113Z,62.54
2022-08-11T04:37:35.073Z,64.01
2022-08-11T04:40:19.562Z,61.53
2022-08-11T04:43:21.945Z,61.07
2022-08-11T04:46:13.762Z,59.83
2022-08-11T04:49:33.129Z,59.08
2022-08-11T04:52:26.192Z,63.23
2022-08-11T04:55:45.404Z,64.52
2022-08-11T04:58:46.307Z,61.44
2022-08-11T05:01:43.077Z,59.88
2022-08-11T05:04:51.995Z,58.85
2022-08-11T05:07:46.367Z,62.50
2022-08-11T05:10:15.150Z,63.30
2022-08-11T05:12:47.855Z,61.45
2022-08-11T05:15:43.022Z,60.48
2022-08-11T05:18:35.580Z,58.49
2022-08-11T05:21:44.742Z,60.42
2022-08-11T05:24:39.281Z,62.90
2022-08-11T05:27:28.997Z,59.69
2022-08-11T05:30:20.344Z,58.56
2022-08-11T05:33:16.255Z,61.67
2022-08-11T05:36:02.048Z,62.74
2022-08-11T05:38:52.918Z,59.90
2022-08-11T05:41:43.651Z,58.18
2022-08-11T05:44:36.981Z,58.86
2022-08-11T05:47:26.452Z,63.08
2022-08-11T05:50:15.035Z,60.20
2022-08-11T05:53:08.994Z,57.62
2022-08-11T05:56:02.167Z,59.21
2022-08-11T05:58:42.292Z,61.25
2022-08-11T06:01:14.468Z,62.94
2022-08-11T06:04:04.583Z,62.10
2022-08-11T06:06:36.169Z,56.58
2022-08-11T06:09:07.245Z,55.76
2022-08-11T06:11:43.237Z,58.72
2022-08-11T06:14:16.905Z,59.94
2022-08-11T06:16:49.012Z,60.62
2022-08-11T06:19:23.302Z,61.81
2022-08-11T06:21:54.527Z,61.12
2022-08-11T06:24:25.295Z,61.51
2022-08-11T06:27:13.437Z,61.60
2022-08-11T06:29:54.857Z,57.85
2022-08-11T06:32:27.374Z,56.83
2022-08-11T06:35:19.108Z,57.45
2022-08-11T06:37:58.965Z,58.20
2022-08-11T06:40:34.824Z,58.57
2022-08-11T06:43:10.480Z,58.89
2022-08-11T06:45:49.196Z,57.71
2022-08-11T06:48:22.236Z,58.62
2022-08-11T06:51:12.028Z,59.37
2022-08-11T06:53:57.589Z,58.24
2022-08-11T06:57:25.960Z,59.14
2022-08-11T07:00:04.399Z,59.01
2022-08-11T07:02:38.510Z,59.19
2022-08-11T07:05:11.729Z,58.76
2022-08-11T07:08:34.902Z,58.50
2022-08-11T07:11:39.938Z,58.26
2022-08-11T07:14:31.189Z,57.87
2022-08-11T07:17:04.085Z,57.92
2022-08-11T07:19:52.149Z,57.08
2022-08-11T07:22:46.935Z,56.52
2022-08-11T07:25:35.499Z,57.00
2022-08-11T07:28:20.873Z,56.78
2022-08-11T07:30:54.127Z,56.29
2022-08-11T07:34:07.587Z,55.14
2022-08-11T07:36:14.774Z,54.53
2022-08-11T07:38:47.542Z,53.40
2022-08-11T07:41:19.071Z,53.33
2022-08-11T07:43:50.658Z,52.70
2022-08-11T07:46:39.840Z,52.94
2022-08-11T07:49:28.427Z,52.50
2022-08-11T07:52:17.750Z,52.25
2022-08-11T07:54:51.261Z,52.84
2022-08-11T07:58:13.772Z,52.64
2022-08-11T08:00:51.708Z,52.06
2022-08-11T08:03:54.351Z,51.85
2022-08-11T08:06:43.369Z,51.62
2022-08-11T08:09:32.915Z,51.00
2022-08-11T08:12:21.967Z,51.39
2022-08-11T08:15:12.162Z,49.98
2022-08-11T08:18:20.556Z,50.02
2022-08-11T08:20:42.196Z,50.92
2022-08-11T08:23:12.825Z,50.48
2022-08-11T08:25:44.950Z,50.64
2022-08-11T08:28:16.809Z,50.31
2022-08-11T08:30:51.289Z,50.47
2022-08-11T08:33:23.279Z,49.55
2022-08-11T08:36:12.124Z,47.96
2022-08-11T08:38:44.543Z,48.84
2022-08-11T08:41:16.778Z,48.56
2022-08-11T08:43:50.335Z,48.63
2022-08-11T08:46:23.523Z,48.07
2022-08-11T08:48:54.260Z,47.05
2022-08-11T08:52:02.459Z,47.23
2022-08-11T08:54:30.442Z,47.33
2022-08-11T08:57:05.341Z,46.34
2022-08-11T08:59:48.756Z,46.42
2022-08-11T09:02:44.001Z,47.44
2022-08-11T09:05:12.638Z,47.29
2022-08-11T09:07:48.256Z,46.29
2022-08-11T09:10:20.313Z,46.96
2022-08-11T09:12:51.867Z,46.76
2022-08-11T09:15:22.453Z,44.74
2022-08-11T09:18:04.211Z,43.54
2022-08-11T09:20:36.033Z,42.92
2022-08-11T09:26:38.975Z,45.04
2022-08-11T09:29:10.961Z,45.06
2022-08-11T09:31:41.733Z,44.62
2022-08-11T09:34:15.134Z,44.72
2022-08-11T09:37:03.579Z,44.35
2022-08-11T09:39:55.338Z,44.79
2022-08-11T09:42:47.508Z,45.62
2022-08-11T09:45:19.377Z,46.00
2022-08-11T09:47:49.771Z,46.33
2022-08-11T09:50:21.099Z,46.05
2022-08-11T09:53:16.875Z,46.47
2022-08-11T09:55:42.413Z,46.19
2022-08-11T09:58:42.094Z,46.48
2022-08-11T10:01:08.490Z,46.27
2022-08-11T10:03:41.742Z,43.56
2022-08-11T10:06:33.076Z,43.49
2022-08-11T10:09:07.372Z,44.13
2022-08-11T10:11:41.382Z,44.40
2022-08-11T10:14:32.976Z,44.15
2022-08-11T10:17:08.356Z,43.43
2022-08-11T10:19:39.088Z,41.84
2022-08-11T10:22:27.921Z,42.03
2022-08-11T10:25:19.928Z,42.35
2022-08-11T10:28:29.086Z,42.61
2022-08-11T10:31:11.230Z,43.08
2022-08-11T10:34:04.208Z,41.18
2022-08-11T10:36:35.935Z,41.03
2022-08-11T10:39:07.361Z,40.13
2022-08-11T10:42:06.382Z,40.16
2022-08-11T10:44:41.363Z,40.27
2022-08-11T10:47:30.291Z,40.47
2022-08-11T10:50:19.132Z,39.69
2022-08-11T10:53:07.793Z,39.58
2022-08-11T10:55:58.379Z,40.41
2022-08-11T10:58:49.037Z,39.79
2022-08-11T11:01:23.993Z,39.74
2022-08-11T11:03:58.235Z,40.79
2022-08-11T11:06:30.409Z,43.96
2022-08-11T11:09:04.457Z,47.60
2022-08-11T11:11:55.426Z,49.23
2022-08-11T11:14:49.777Z,51.41
2022-08-11T11:17:43.209Z,51.70
2022-08-11T11:20:34.586Z,52.05
2022-08-11T11:23:08.224Z,52.13
2022-08-11T11:26:06.792Z,52.14
2022-08-11T11:28:47.422Z,53.73
2022-08-11T11:31:24.956Z,54.59
2022-08-11T11:34:11.837Z,53.87
2022-08-11T11:36:46.861Z,53.41
2022-08-11T11:39:20.577Z,52.38
2022-08-11T11:41:52.405Z,54.57
2022-08-11T11:44:24.075Z,55.33
2022-08-11T11:46:56.785Z,54.59
2022-08-11T11:49:29.347Z,54.20
2022-08-11T11:52:00.950Z,51.71
2022-08-11T11:54:34.202Z,49.16
2022-08-11T11:57:30.537Z,47.05
2022-08-11T12:00:19.313Z,47.44
2022-08-11T12:02:50.299Z,47.76
2022-08-11T12:05:22.142Z,47.47
2022-08-11T12:08:13.102Z,46.94
2022-08-11T12:10:44.879Z,46.23
2022-08-11T12:13:33.252Z,46.98
2022-08-11T12:16:33.059Z,44.01
2022-08-11T12:19:00.234Z,41.06
2022-08-11T12:21:31.583Z,41.00
2022-08-11T12:24:20.872Z,42.37
2022-08-11T12:27:16.201Z,42.05
2022-08-11T12:29:54.414Z,42.48
2022-08-11T12:32:29.195Z,42.73
2022-08-11T12:34:59.724Z,44.50
2022-08-11T12:37:32.412Z,46.54
2022-08-11T12:40:43.589Z,47.79
2022-08-11T12:43:38.388Z,48.82
2022-08-11T12:46:11.572Z,50.03
2022-08-11T12:49:03.753Z,51.08
2022-08-11T12:52:01.491Z,52.39
2022-08-11T12:54:58.041Z,53.70
2022-08-11T12:57:48.174Z,55.35
2022-08-11T13:00:37.170Z,56.78
2022-08-11T13:03:26.035Z,58.34
2022-08-11T13:05:58.296Z,59.46
2022-08-11T13:08:30.045Z,61.20
2022-08-11T13:11:19.591Z,61.88
2022-08-11T13:13:54.256Z,62.14
2022-08-11T13:16:29.133Z,59.22
2022-08-11T13:19:01.503Z,59.65
2022-08-11T13:21:32.552Z,60.90
2022-08-11T13:24:03.830Z,62.55
2022-08-11T13:26:43.154Z,61.79
2022-08-11T13:29:24.241Z,59.13
2022-08-11T13:31:56.576Z,59.71
2022-08-11T13:34:28.171Z,61.87
2022-08-11T13:37:01.644Z,64.86
2022-08-11T13:39:30.541Z,63.16
2022-08-11T13:42:02.877Z,61.67
2022-08-11T13:44:37.114Z,59.75
2022-08-11T13:47:09.317Z,60.95
2022-08-11T13:49:41.271Z,63.35
2022-08-11T13:52:14.279Z,61.54
2022-08-11T13:54:48.191Z,60.63
2022-08-11T13:58:08.383Z,58.91
2022-08-11T14:00:13.223Z,60.13
2022-08-11T14:02:57.453Z,61.35
2022-08-11T14:05:29.308Z,64.19
2022-08-11T14:08:02.417Z,64.80
2022-08-11T14:10:37.315Z,63.90
2022-08-11T14:13:42.384Z,61.95
2022-08-11T14:16:18.919Z,59.50
2022-08-11T14:18:51.748Z,57.50
2022-08-11T14:21:42.915Z,58.75
2022-08-11T14:24:14.007Z,60.74
2022-08-11T14:26:45.526Z,62.49
2022-08-11T14:29:17.806Z,55.32
2022-08-11T14:31:49.148Z,55.51
2022-08-11T14:34:21.458Z,56.26
2022-08-11T14:36:53.568Z,56.33
2022-08-11T14:39:27.102Z,54.13
2022-08-11T14:42:15.709Z,52.02
2022-08-11T14:45:05.509Z,50.68
2022-08-11T14:47:37.240Z,48.63
2022-08-11T14:50:10.879Z,49.22
2022-08-11T14:52:52.768Z,50.03
2022-08-11T14:55:42.453Z,51.03
2022-08-11T14:58:14.338Z,48.75
2022-08-11T15:00:45.208Z,47.87
2022-08-11T15:03:16.403Z,47.77
2022-08-11T15:05:57.364Z,48.68
2022-08-11T15:08:50.180Z,50.73
2022-08-11T15:11:40.253Z,52.01
2022-08-11T15:14:11.241Z,54.17
2022-08-11T15:17:00.515Z,56.63
2022-08-11T15:19:41.012Z,59.28
2022-08-11T15:22:30.514Z,60.92
2022-08-11T15:25:01.084Z,62.74
2022-08-11T15:27:51.877Z,64.40
2022-08-11T15:30:41.092Z,61.94
2022-08-11T15:33:30.483Z,55.81
2022-08-11T15:36:20.678Z,55.75
2022-08-11T15:38:55.793Z,57.64
2022-08-11T15:41:58.598Z,57.96
2022-08-11T15:45:05.002Z,58.14
2022-08-11T15:47:38.824Z,57.21
2022-08-11T15:50:16.249Z,57.90
2022-08-11T15:52:49.041Z,58.24
2022-08-11T15:55:19.924Z,58.12
2022-08-11T15:58:09.184Z,58.89
2022-08-11T16:01:04.447Z,58.83
2022-08-11T16:04:07.753Z,59.51
2022-08-11T16:06:43.963Z,59.28
2022-08-11T16:09:21.763Z,57.65
2022-08-11T16:11:54.279Z,55.66
2022-08-11T16:14:43.262Z,56.91
2022-08-11T16:17:15.515Z,57.05
2022-08-11T16:19:47.271Z,56.59
2022-08-11T16:22:21.992Z,56.81
2022-08-11T16:27:01.514Z,56.69
2022-08-11T16:27:45.475Z,56.60
2022-08-11T16:30:16.110Z,55.98
2022-08-11T16:32:48.384Z,56.38
2022-08-11T16:35:37.352Z,56.72
2022-08-11T16:38:26.609Z,56.80
2022-08-11T16:40:57.952Z,57.45
2022-08-11T16:43:47.729Z,59.24
2022-08-11T16:46:35.069Z,59.67
2022-08-11T16:49:07.558Z,60.40
2022-08-11T16:51:37.955Z,61.65
2022-08-11T16:54:08.640Z,61.94
2022-08-11T16:56:42.078Z,63.11
2022-08-11T16:59:18.532Z,62.22
2022-08-11T17:01:53.524Z,59.90
2022-08-11T17:04:47.869Z,59.38
2022-08-11T17:07:41.944Z,61.71
2022-08-11T17:10:51.959Z,64.16
2022-08-11T17:13:29.313Z,61.66
2022-08-11T17:16:08.672Z,61.28
2022-08-11T17:18:44.209Z,61.74
2022-08-11T17:21:16.653Z,61.91
2022-08-11T17:23:50.348Z,56.46
2022-08-11T17:26:22.997Z,55.83
2022-08-11T17:28:56.399Z,58.13
2022-08-11T17:31:46.001Z,59.31
2022-08-11T17:34:34.447Z,61.05
2022-08-11T17:37:06.146Z,63.81
2022-08-11T17:39:37.075Z,63.46
2022-08-11T17:42:26.611Z,59.32
2022-08-11T17:45:15.370Z,59.34
2022-08-11T17:48:04.225Z,61.38
2022-08-11T17:50:35.545Z,65.16
2022-08-11T17:53:24.267Z,61.49
2022-08-11T17:56:13.333Z,59.73
2022-08-11T17:59:02.522Z,60.09
2022-08-11T18:01:35.685Z,62.85
2022-08-11T18:04:07.309Z,64.77
2022-08-11T18:06:38.745Z,61.99
2022-08-11T18:09:29.487Z,59.62
2022-08-11T18:12:18.714Z,59.82
2022-08-11T18:15:07.882Z,60.90
2022-08-11T18:17:55.987Z,64.59
2022-08-11T18:20:44.615Z,62.57
2022-08-11T18:23:45.996Z,60.01
2022-08-11T18:26:38.166Z,58.60
2022-08-11T18:29:26.826Z,60.30
2022-08-11T18:32:22.189Z,62.19
2022-08-11T18:35:13.969Z,65.43
2022-08-11T18:38:06.093Z,62.22
2022-08-11T18:40:54.639Z,59.53
2022-08-11T18:43:45.039Z,59.99
2022-08-11T18:46:35.069Z,62.62
2022-08-11T18:49:35.476Z,63.42
2022-08-11T18:52:36.801Z,60.46
2022-08-11T18:55:28.930Z,58.45
2022-08-11T18:58:19.547Z,60.91
2022-08-11T19:01:09.170Z,63.50
2022-08-11T19:04:10.495Z,63.26
2022-08-11T19:07:01.166Z,60.37
2022-08-11T19:09:50.729Z,57.99
2022-08-11T19:12:40.312Z,59.28
2022-08-11T19:15:30.123Z,61.59
2022-08-11T19:18:18.731Z,64.99
2022-08-11T19:21:06.951Z,62.14
2022-08-11T19:23:57.892Z,58.66
2022-08-11T19:26:46.868Z,58.71
2022-08-11T19:30:11.827Z,60.62
2022-08-11T19:32:48.816Z,64.22
2022-08-11T19:35:38.007Z,61.38
2022-08-11T19:38:28.105Z,59.71
2022-08-11T19:41:18.462Z,57.86
2022-08-11T19:44:27.005Z,60.77
2022-08-11T19:47:17.355Z,64.26
2022-08-11T19:50:07.692Z,62.20
2022-08-11T19:53:00.469Z,58.93
2022-08-11T19:55:49.189Z,59.43
2022-08-11T19:58:37.750Z,61.11
2022-08-11T20:01:25.959Z,65.46
2022-08-11T20:04:14.711Z,63.75
2022-08-11T20:07:02.886Z,61.40
2022-08-11T20:10:06.108Z,58.62
2022-08-11T20:12:56.508Z,60.19
2022-08-11T20:15:45.635Z,62.98
2022-08-11T20:18:35.072Z,64.55
2022-08-11T20:21:25.562Z,62.30
2022-08-11T20:24:19.591Z,60.85
2022-08-11T20:27:18.558Z,57.70
2022-08-11T20:30:13.376Z,59.11
2022-08-11T20:33:02.776Z,60.90
2022-08-11T20:35:51.708Z,65.17
2022-08-11T20:38:41.583Z,64.31
2022-08-11T20:41:30.141Z,61.56
2022-08-11T20:44:19.411Z,58.77
2022-08-11T20:47:13.127Z,59.25
2022-08-11T20:53:10.663Z,65.94
2022-08-11T20:55:59.001Z,64.41
2022-08-11T20:59:14.349Z,62.49
2022-08-11T21:01:56.285Z,59.76
2022-08-11T21:04:54.427Z,58.04
2022-08-11T21:07:55.610Z,58.84
2022-08-11T21:10:48.707Z,63.80
2022-08-11T21:13:42.068Z,62.75
2022-08-11T21:16:32.007Z,60.55
2022-08-11T21:19:59.514Z,59.09
2022-08-11T21:22:33.914Z,60.17
2022-08-11T21:25:24.058Z,63.96
2022-08-11T21:28:16.823Z,64.12
2022-08-11T21:31:06.091Z,63.17
2022-08-11T21:33:54.645Z,61.76
2022-08-11T21:36:43.602Z,60.57
2022-08-11T21:39:32.920Z,58.27
2022-08-11T21:42:22.647Z,58.11
2022-08-11T21:45:10.691Z,59.51
2022-08-11T21:48:01.454Z,65.22
2022-08-11T21:50:49.743Z,64.69
2022-08-11T21:53:38.900Z,62.70
2022-08-11T21:56:29.092Z,61.08
2022-08-11T21:59:18.262Z,59.33
2022-08-11T22:02:11.935Z,60.13
2022-08-11T22:05:01.072Z,63.13
2022-08-11T22:07:49.614Z,64.67
2022-08-11T22:10:41.797Z,63.00
2022-08-11T22:13:31.870Z,61.19
2022-08-11T22:16:20.827Z,60.44
2022-08-11T22:19:09.810Z,58.61
2022-08-11T22:22:03.816Z,58.69
2022-08-11T22:24:53.136Z,62.15
2022-08-11T22:27:42.704Z,66.45
2022-08-11T22:30:30.639Z,65.69
2022-08-11T22:33:24.370Z,63.28
2022-08-11T22:36:15.432Z,61.85
2022-08-11T22:39:05.104Z,60.98
2022-08-11T22:41:52.890Z,59.23
2022-08-11T22:44:41.601Z,60.67
2022-08-11T22:47:38.273Z,65.13
2022-08-11T22:50:29.447Z,64.48
2022-08-11T22:53:18.714Z,63.27
2022-08-11T22:56:07.779Z,61.76
2022-08-11T22:58:55.920Z,61.28
2022-08-11T23:01:55.339Z,60.84
2022-08-11T23:04:46.337Z,60.29
2022-08-11T23:07:49.697Z,60.32
2022-08-11T23:10:40.740Z,59.92
2022-08-11T23:13:29.388Z,58.55
2022-08-11T23:16:17.631Z,61.15
2022-08-11T23:19:07.458Z,65.89
2022-08-11T23:21:56.543Z,64.56
2022-08-11T23:24:45.638Z,62.97
2022-08-11T23:27:34.800Z,62.26
2022-08-11T23:30:23.767Z,62.07
2022-08-11T23:33:15.474Z,61.71
2022-08-11T23:36:05.744Z,61.21
2022-08-11T23:38:54.817Z,61.13
2022-08-11T23:41:43.510Z,60.68
2022-08-11T23:44:31.376Z,60.19
2022-08-11T23:47:20.062Z,60.16
2022-08-11T23:50:08.532Z,58.76
2022-08-11T23:52:57.083Z,60.53
2022-08-11T23:55:46.145Z,65.61
2022-08-11T23:58:35.251Z,64.73
